To NAV CANADA Home Page Login to a new session Search on AWWS site Feedback and Comments Disclaimer Vers la page française équivalente Tips FAQ What's new on the site To the Forecasts and Observations / NOTAM section To "File a Flight Plan" website Publications and other links Update of the User's profile FIC Telephone Numbers My Weather Data Folder Route Weather Data Regional Weather Data Local Weather Data To the Forecasts and Observations / NOTAM section
Request Generated 08/29/2015 at 09:16:18 UTC . Weather information available at that time is displayed.

METAR/TAF

WHITEHORSE/ERIK NIELSEN INTL/YT    

METAR CYXY 290900Z CCA 35004KT 5SM -RASN BR BKN006 OVC014 02/02 A2957
RMK ST6SC2 SLP041=
METAR CYXY 290900Z 35004KT 5SM RASN BR BKN006 OVC014 02/02 A2957 RMK
ST6SC2 SLP041=
METAR CYXY 290800Z 36004KT 320V030 6SM -RASN BR BKN007 OVC013 02/02
A2956 RMK ST6SC2 SLP040=
SPECI CYXY 290727Z 34006KT 6SM -RASN BR BKN007 BKN012 BKN020 OVC050
02/02 A2957 RMK ST5SC1SC1SC1 SLP041=
METAR CYXY 290700Z 34006KT 4SM -RASN BR BKN007 BKN012 OVC025 03/01
A2958 RMK ST5SC2SC1 SLP045=

TAF CYXY 290538Z 2906/3006 35008KT 3SM -RASN BR BKN006 OVC012 TEMPO
2906/2919 6SM -RA BR SCT008 OVC015
FM291900 34006KT P6SM SCT008 OVC025 TEMPO 2919/2921 5SM -SHRA BR
BKN008
FM292100 34006KT P6SM SCT012 BKN030 TEMPO 2921/3002 P6SM -SHRA
BKN012
RMK NXT FCST BY 291200Z=
Your time UTC time
Weather data provided by Environment Canada and NAV CANADA